createdAt,value
2023-04-16T00:01:20.881Z,7.28
2023-04-16T00:03:49.017Z,5.15
2023-04-16T00:06:17.152Z,2.92
2023-04-16T00:08:45.202Z,2.78
2023-04-16T00:11:13.072Z,2.85
2023-04-16T00:13:41.491Z,3.28
2023-04-16T00:16:09.560Z,2.92
2023-04-16T00:18:37.366Z,2.95
2023-04-16T00:21:05.700Z,3.10
2023-04-16T00:23:33.575Z,2.25
2023-04-16T00:26:01.517Z,1.95
2023-04-16T00:28:29.828Z,2.22
2023-04-16T00:30:57.926Z,3.92
2023-04-16T00:33:25.811Z,4.22
2023-04-16T00:35:53.680Z,3.75
2023-04-16T00:38:21.594Z,3.78
2023-04-16T00:40:49.511Z,4.70
2023-04-16T00:43:23.294Z,4.63
2023-04-16T00:45:52.321Z,3.60
2023-04-16T00:48:21.308Z,4.03
2023-04-16T00:50:49.405Z,4.82
2023-04-16T00:53:17.308Z,3.92
2023-04-16T00:55:46.177Z,3.60
2023-04-16T00:58:14.075Z,4.25
2023-04-16T01:00:42.160Z,6.10
2023-04-16T01:03:10.846Z,4.40
2023-04-16T01:05:39.562Z,26.08
2023-04-16T01:08:07.489Z,14.63
2023-04-16T01:10:35.482Z,5.75
2023-04-16T01:13:03.395Z,3.70
2023-04-16T01:15:31.365Z,6.18
2023-04-16T01:17:59.261Z,6.97
2023-04-16T01:20:27.282Z,4.78
2023-04-16T01:22:55.135Z,5.95
2023-04-16T01:25:23.318Z,5.10
2023-04-16T01:27:51.292Z,4.65
2023-04-16T01:30:19.382Z,3.78
2023-04-16T01:32:58.215Z,3.35
2023-04-16T01:35:26.284Z,4.80
2023-04-16T01:37:54.212Z,2.95
2023-04-16T01:40:22.293Z,4.00
2023-04-16T01:42:51.322Z,4.35
2023-04-16T01:45:19.356Z,3.92
2023-04-16T01:47:47.638Z,2.78
2023-04-16T01:50:15.941Z,5.55
2023-04-16T01:52:44.117Z,3.70
2023-04-16T01:55:12.399Z,4.78
2023-04-16T01:57:40.383Z,6.37
2023-04-16T02:00:09.427Z,4.68
2023-04-16T02:02:47.319Z,6.22
2023-04-16T02:05:21.704Z,3.90
2023-04-16T02:07:49.832Z,4.28
2023-04-16T02:10:20.068Z,4.38
2023-04-16T02:12:49.122Z,5.13
2023-04-16T02:15:17.095Z,4.05
2023-04-16T02:17:46.831Z,3.60
2023-04-16T02:20:14.988Z,3.35
2023-04-16T02:22:49.909Z,2.28
2023-04-16T02:25:21.027Z,2.72
2023-04-16T02:27:51.111Z,1.77
2023-04-16T02:30:35.197Z,2.55
2023-04-16T02:33:08.875Z,2.67
2023-04-16T02:35:39.757Z,1.88
2023-04-16T02:38:08.693Z,4.43
2023-04-16T02:43:04.962Z,4.05
2023-04-16T02:45:32.988Z,4.15
2023-04-16T02:48:01.129Z,2.78
2023-04-16T02:50:29.224Z,3.30
2023-04-16T02:55:52.810Z,3.42
2023-04-16T02:58:22.154Z,15.43
2023-04-16T03:00:51.128Z,9.93
2023-04-16T03:03:19.558Z,9.57
2023-04-16T03:05:48.713Z,3.75
2023-04-16T03:08:17.620Z,4.53
2023-04-16T03:13:37.828Z,6.07
2023-04-16T03:16:06.293Z,6.15
2023-04-16T03:18:34.168Z,4.50
2023-04-16T03:21:02.056Z,3.05
2023-04-16T03:23:30.936Z,4.40
2023-04-16T03:25:58.864Z,3.42
2023-04-16T03:28:27.442Z,5.30
2023-04-16T03:30:55.777Z,4.60
2023-04-16T03:33:23.923Z,4.32
2023-04-16T03:35:59.353Z,3.42
2023-04-16T03:38:30.801Z,3.08
2023-04-16T03:41:02.449Z,3.85
2023-04-16T03:43:34.285Z,3.63
2023-04-16T03:46:02.266Z,1.75
2023-04-16T03:48:30.262Z,2.95
2023-04-16T03:53:27.872Z,3.60
2023-04-16T03:55:56.185Z,3.88
2023-04-16T03:58:24.999Z,4.22
2023-04-16T04:00:55.596Z,3.28
2023-04-16T04:03:24.025Z,3.22
2023-04-16T04:05:52.274Z,3.08
2023-04-16T04:08:26.519Z,2.20
2023-04-16T04:10:54.880Z,3.30
2023-04-16T04:13:24.305Z,2.83
2023-04-16T04:15:53.219Z,3.55
2023-04-16T04:20:50.291Z,2.70
2023-04-16T04:23:20.955Z,3.20
2023-04-16T04:25:49.429Z,2.55
2023-04-16T04:28:17.535Z,2.58
2023-04-16T04:30:45.476Z,3.95
2023-04-16T04:33:13.976Z,2.17
2023-04-16T04:38:10.999Z,3.25
2023-04-16T04:40:39.428Z,2.53
2023-04-16T04:48:04.220Z,3.72
2023-04-16T04:50:32.848Z,4.65
2023-04-16T04:53:00.908Z,3.97
2023-04-16T04:55:28.849Z,4.55
2023-04-16T04:57:56.978Z,4.07
2023-04-16T05:00:25.162Z,3.58
2023-04-16T05:02:55.880Z,4.68
2023-04-16T05:05:24.022Z,5.88
2023-04-16T05:07:51.904Z,7.10
2023-04-16T05:10:19.936Z,10.23
2023-04-16T05:12:51.322Z,14.00
2023-04-16T05:15:19.688Z,12.85
2023-04-16T05:17:47.651Z,11.30
2023-04-16T05:20:15.649Z,11.23
2023-04-16T05:22:43.688Z,13.13
2023-04-16T05:25:11.499Z,6.65
2023-04-16T05:27:39.724Z,9.15
2023-04-16T05:30:08.350Z,5.13
2023-04-16T05:32:36.873Z,5.95
2023-04-16T05:35:05.469Z,8.10
2023-04-16T05:37:33.292Z,8.05
2023-04-16T05:40:01.387Z,7.63
2023-04-16T05:42:29.734Z,8.65
2023-04-16T05:44:57.934Z,6.97
2023-04-16T05:47:25.947Z,7.03
2023-04-16T05:49:54.034Z,7.35
2023-04-16T05:52:21.984Z,8.50
2023-04-16T05:54:50.111Z,8.38
2023-04-16T05:57:18.078Z,7.80
2023-04-16T05:59:46.040Z,10.80
2023-04-16T06:02:14.234Z,6.32
2023-04-16T06:04:42.388Z,4.90
2023-04-16T06:07:10.996Z,5.80
2023-04-16T06:12:07.742Z,5.65
2023-04-16T06:14:36.039Z,4.85
2023-04-16T06:17:04.033Z,4.85
2023-04-16T06:19:32.493Z,2.45
2023-04-16T06:22:00.577Z,3.65
2023-04-16T06:24:29.053Z,4.50
2023-04-16T06:26:57.641Z,4.78
2023-04-16T06:29:33.658Z,4.53
2023-04-16T06:32:09.992Z,3.72
2023-04-16T06:37:09.080Z,3.28
2023-04-16T06:39:39.021Z,3.30
2023-04-16T06:44:36.306Z,2.72
2023-04-16T06:47:05.098Z,2.25
2023-04-16T06:49:33.504Z,1.90
2023-04-16T06:52:03.885Z,3.72
2023-04-16T06:54:34.221Z,3.42
2023-04-16T06:59:31.974Z,2.33
2023-04-16T07:02:00.433Z,2.53
2023-04-16T07:06:57.287Z,3.88
2023-04-16T07:09:27.053Z,2.70
2023-04-16T07:11:55.708Z,4.95
2023-04-16T07:16:52.591Z,2.53
2023-04-16T07:19:21.605Z,3.83
2023-04-16T07:21:50.149Z,3.10
2023-04-16T07:24:18.889Z,3.80
2023-04-16T07:29:15.475Z,3.28
2023-04-16T07:31:44.000Z,3.13
2023-04-16T07:34:12.243Z,2.25
2023-04-16T07:36:40.924Z,2.30
2023-04-16T07:39:09.277Z,1.60
2023-04-16T07:44:06.444Z,1.60
2023-04-16T07:49:16.042Z,2.65
2023-04-16T07:51:44.677Z,3.38
2023-04-16T07:54:13.016Z,4.15
2023-04-16T07:59:22.054Z,5.30
2023-04-16T08:01:53.879Z,3.70
2023-04-16T08:04:26.476Z,1.95
2023-04-16T08:06:55.280Z,2.15
2023-04-16T08:09:27.558Z,2.13
2023-04-16T08:11:56.267Z,3.95
2023-04-16T08:16:54.345Z,5.13
2023-04-16T08:19:22.746Z,1.60
2023-04-16T08:21:51.051Z,2.47
2023-04-16T08:26:47.732Z,1.58
2023-04-16T08:29:16.152Z,3.20
2023-04-16T08:31:44.812Z,3.42
2023-04-16T08:36:41.918Z,1.52
2023-04-16T08:39:11.093Z,13.88
2023-04-16T08:41:44.165Z,5.60
2023-04-16T08:44:24.090Z,7.75
2023-04-16T08:46:59.311Z,5.15
2023-04-16T08:49:28.332Z,3.38
2023-04-16T08:51:57.366Z,1.70
2023-04-16T08:54:37.930Z,3.75
2023-04-16T08:57:10.708Z,1.35
2023-04-16T08:59:39.628Z,1.40
2023-04-16T09:02:10.317Z,1.90
2023-04-16T09:04:40.369Z,10.23
2023-04-16T09:07:09.783Z,1.15
2023-04-16T09:09:40.118Z,1.25
2023-04-16T09:12:09.556Z,1.58
2023-04-16T09:14:38.552Z,1.33
2023-04-16T09:17:07.672Z,1.42
2023-04-16T09:19:36.055Z,1.92
2023-04-16T09:22:04.581Z,1.20
2023-04-16T09:27:01.597Z,1.00
2023-04-16T09:29:36.883Z,1.48
2023-04-16T09:32:08.233Z,1.88
2023-04-16T09:34:56.396Z,6.22
2023-04-16T09:37:30.258Z,1.80
2023-04-16T09:40:01.228Z,1.73
2023-04-16T09:42:32.583Z,2.63
2023-04-16T09:45:03.368Z,1.52
2023-04-16T09:47:44.754Z,1.08
2023-04-16T09:50:19.195Z,2.17
2023-04-16T09:52:51.912Z,2.95
2023-04-16T09:55:28.307Z,2.83
2023-04-16T09:58:02.944Z,1.60
2023-04-16T10:00:31.938Z,1.65
2023-04-16T10:03:09.031Z,2.05
2023-04-16T10:05:37.964Z,2.17
2023-04-16T10:08:14.936Z,1.25
2023-04-16T10:10:43.749Z,1.70
2023-04-16T10:13:14.874Z,0.70
2023-04-16T10:15:43.750Z,0.63
2023-04-16T10:18:13.400Z,1.13
2023-04-16T10:20:42.073Z,1.13
2023-04-16T10:23:11.270Z,0.73
2023-04-16T10:25:41.100Z,1.63
2023-04-16T10:28:13.561Z,0.93
2023-04-16T10:30:48.700Z,1.15
2023-04-16T10:33:17.739Z,1.38
2023-04-16T10:35:52.441Z,1.83
2023-04-16T10:38:30.554Z,5.18
2023-04-16T10:41:01.224Z,1.23
2023-04-16T10:43:31.934Z,1.70
2023-04-16T10:46:19.761Z,0.90
2023-04-16T10:48:50.849Z,1.75
2023-04-16T10:51:29.814Z,2.20
2023-04-16T10:54:03.462Z,1.85
2023-04-16T10:56:36.341Z,1.27
2023-04-16T10:59:09.677Z,1.45
2023-04-16T11:01:42.813Z,2.08
2023-04-16T11:04:20.142Z,2.47
2023-04-16T11:07:06.369Z,1.88
2023-04-16T11:09:48.001Z,1.67
2023-04-16T11:12:36.265Z,1.27
2023-04-16T11:15:06.767Z,1.02
2023-04-16T11:17:39.567Z,1.10
2023-04-16T11:20:18.901Z,1.92
2023-04-16T11:22:54.203Z,1.92
2023-04-16T11:25:26.975Z,0.98
2023-04-16T11:27:56.464Z,1.63
2023-04-16T11:30:35.176Z,1.52
2023-04-16T11:33:05.388Z,1.65
2023-04-16T11:35:33.789Z,2.45
2023-04-16T11:38:02.765Z,1.42
2023-04-16T11:40:32.003Z,1.38
2023-04-16T11:43:05.808Z,1.10
2023-04-16T11:45:34.211Z,1.27
2023-04-16T11:48:02.474Z,1.65
2023-04-16T11:53:06.661Z,1.25
2023-04-16T11:55:45.202Z,1.40
2023-04-16T11:58:16.989Z,1.23
2023-04-16T12:00:46.219Z,1.30
2023-04-16T12:03:14.809Z,1.30
2023-04-16T12:05:43.721Z,2.30
2023-04-16T12:08:13.008Z,1.23
2023-04-16T12:10:56.966Z,0.73
2023-04-16T12:13:25.935Z,1.23
2023-04-16T12:18:29.579Z,1.42
2023-04-16T12:23:28.289Z,2.30
2023-04-16T12:26:03.085Z,1.80
2023-04-16T12:28:34.281Z,1.02
2023-04-16T12:31:03.957Z,16.63
2023-04-16T12:33:32.538Z,1.08
2023-04-16T12:36:02.223Z,0.98
2023-04-16T12:38:31.477Z,1.50
2023-04-16T12:40:59.932Z,1.23
2023-04-16T12:45:57.451Z,1.52
2023-04-16T12:48:26.020Z,1.45
2023-04-16T12:50:55.393Z,1.17
2023-04-16T12:53:23.884Z,1.23
2023-04-16T12:55:52.222Z,1.10
2023-04-16T12:58:20.910Z,2.28
2023-04-16T13:00:49.711Z,2.47
2023-04-16T13:03:18.317Z,2.03
2023-04-16T13:05:47.005Z,1.20
2023-04-16T13:08:16.037Z,1.30
2023-04-16T13:10:44.476Z,2.72
2023-04-16T13:13:12.756Z,1.00
2023-04-16T13:18:09.739Z,1.20
2023-04-16T13:20:38.481Z,2.85
2023-04-16T13:23:07.312Z,1.73
2023-04-16T13:25:36.022Z,1.60
2023-04-16T13:28:04.363Z,1.42
2023-04-16T13:30:33.822Z,2.25
2023-04-16T13:33:02.568Z,1.67
2023-04-16T13:35:31.554Z,2.20
2023-04-16T13:38:00.028Z,1.58
2023-04-16T13:40:28.297Z,1.73
2023-04-16T13:42:56.787Z,2.60
2023-04-16T13:45:25.208Z,1.90
2023-04-16T13:50:22.173Z,1.90
2023-04-16T13:52:50.772Z,2.25
2023-04-16T13:55:19.570Z,1.40
2023-04-16T13:57:48.088Z,1.70
2023-04-16T14:02:49.137Z,2.40
2023-04-16T14:05:18.122Z,3.30
2023-04-16T14:07:46.734Z,2.83
2023-04-16T14:10:15.220Z,2.60
2023-04-16T14:15:15.168Z,3.17
2023-04-16T14:17:44.544Z,2.30
2023-04-16T14:20:14.417Z,4.53
2023-04-16T14:22:44.260Z,1.60
2023-04-16T14:25:12.958Z,2.63
2023-04-16T14:30:10.768Z,2.42
2023-04-16T14:32:39.386Z,1.48
2023-04-16T14:35:08.761Z,1.85
2023-04-16T14:37:37.295Z,1.90
2023-04-16T14:40:09.227Z,1.83
2023-04-16T14:42:37.885Z,1.55
2023-04-16T14:45:07.112Z,2.25
2023-04-16T14:47:38.111Z,2.67
2023-04-16T14:50:07.153Z,1.38
2023-04-16T14:52:35.546Z,3.03
2023-04-16T14:55:05.877Z,1.90
2023-04-16T14:57:34.503Z,1.40
2023-04-16T15:00:07.969Z,1.92
2023-04-16T15:02:37.067Z,1.35
2023-04-16T15:05:05.921Z,2.38
2023-04-16T15:07:34.433Z,2.65
2023-04-16T15:10:03.331Z,1.50
2023-04-16T15:12:31.696Z,2.88
2023-04-16T15:15:00.401Z,1.98
2023-04-16T15:19:57.024Z,2.90
2023-04-16T15:22:25.495Z,2.47
2023-04-16T15:24:54.476Z,1.73
2023-04-16T15:27:23.089Z,4.65
2023-04-16T15:29:51.679Z,8.73
2023-04-16T15:32:20.318Z,6.95
2023-04-16T15:34:48.863Z,4.90
2023-04-16T15:37:17.371Z,7.50
2023-04-16T15:42:14.078Z,14.77
2023-04-16T15:44:42.703Z,7.65
2023-04-16T15:49:39.724Z,4.10
2023-04-16T15:52:08.688Z,3.42
2023-04-16T15:54:37.097Z,3.60
2023-04-16T15:57:05.781Z,2.70
2023-04-16T15:59:34.231Z,3.33
2023-04-16T16:02:02.894Z,3.35
2023-04-16T16:06:59.920Z,1.98
2023-04-16T16:09:28.381Z,2.03
2023-04-16T16:14:27.334Z,2.28
2023-04-16T16:16:55.907Z,2.22
2023-04-16T16:19:24.634Z,1.77
2023-04-16T16:24:21.677Z,2.95
2023-04-16T16:26:50.237Z,2.88
2023-04-16T16:29:18.715Z,3.00
2023-04-16T16:31:47.401Z,5.40
2023-04-16T16:34:20.730Z,7.28
2023-04-16T16:36:50.283Z,10.50
2023-04-16T16:39:19.135Z,15.20
2023-04-16T16:41:52.416Z,10.23
2023-04-16T16:44:22.636Z,8.27
2023-04-16T16:46:51.766Z,10.70
2023-04-16T16:49:20.405Z,28.67
2023-04-16T16:51:49.493Z,8.43
2023-04-16T16:54:17.968Z,5.05
2023-04-16T16:56:46.463Z,3.55
2023-04-16T16:59:14.769Z,3.78
2023-04-16T17:01:43.430Z,4.03
2023-04-16T17:04:11.858Z,6.53
2023-04-16T17:06:40.469Z,9.63
2023-04-16T17:09:09.683Z,9.38
2023-04-16T17:11:38.489Z,4.63
2023-04-16T17:14:06.924Z,6.53
2023-04-16T17:16:35.486Z,5.75
2023-04-16T17:21:33.792Z,4.47
2023-04-16T17:24:02.528Z,3.83
2023-04-16T17:26:31.927Z,6.82
2023-04-16T17:29:00.519Z,6.70
2023-04-16T17:31:28.878Z,4.07
2023-04-16T17:33:57.262Z,7.63
2023-04-16T17:36:30.300Z,9.73
2023-04-16T17:38:59.126Z,7.47
2023-04-16T17:41:27.585Z,7.30
2023-04-16T17:43:56.105Z,7.28
2023-04-16T17:46:24.601Z,8.38
2023-04-16T17:48:53.196Z,8.75
2023-04-16T17:51:21.613Z,9.75
2023-04-16T17:53:51.189Z,6.50
2023-04-16T17:56:19.687Z,6.03
2023-04-16T17:58:48.407Z,4.20
2023-04-16T18:01:16.990Z,3.03
2023-04-16T18:03:45.668Z,3.67
2023-04-16T18:06:14.525Z,3.50
2023-04-16T18:08:43.033Z,6.60
2023-04-16T18:11:11.629Z,15.15
2023-04-16T18:13:40.412Z,15.13
2023-04-16T18:16:15.088Z,12.05
2023-04-16T18:18:44.475Z,5.68
2023-04-16T18:21:13.244Z,8.60
2023-04-16T18:23:41.883Z,8.05
2023-04-16T18:26:11.284Z,7.55
2023-04-16T18:28:40.874Z,14.07
2023-04-16T18:31:09.530Z,17.73
2023-04-16T18:36:09.150Z,5.88
2023-04-16T18:38:46.406Z,7.45
2023-04-16T18:41:22.210Z,8.57
2023-04-16T18:43:51.041Z,10.27
2023-04-16T18:46:19.683Z,14.80
2023-04-16T18:48:48.042Z,14.07
2023-04-16T18:51:16.891Z,8.98
2023-04-16T18:56:14.399Z,14.07
2023-04-16T18:58:45.786Z,8.15
2023-04-16T19:01:14.531Z,12.73
2023-04-16T19:03:42.930Z,4.95
2023-04-16T19:06:11.595Z,8.52
2023-04-16T19:08:40.032Z,9.75
2023-04-16T19:11:08.722Z,17.30
2023-04-16T19:13:39.205Z,7.25
2023-04-16T19:16:11.835Z,8.95
2023-04-16T19:18:40.568Z,9.32
2023-04-16T19:21:11.137Z,10.45
2023-04-16T19:23:39.751Z,6.45
2023-04-16T19:26:08.207Z,6.45
2023-04-16T19:28:36.857Z,4.25
2023-04-16T19:31:05.293Z,8.27
2023-04-16T19:33:33.790Z,7.10
2023-04-16T19:36:03.114Z,7.32
2023-04-16T19:38:34.580Z,5.30
2023-04-16T19:41:03.228Z,3.67
2023-04-16T19:43:32.235Z,3.50
2023-04-16T19:46:00.803Z,3.97
2023-04-16T19:48:29.602Z,4.70
2023-04-16T19:51:02.655Z,3.45
2023-04-16T19:53:31.359Z,4.22
2023-04-16T19:55:59.735Z,5.28
2023-04-16T19:58:28.188Z,5.63
2023-04-16T20:00:56.889Z,4.20
2023-04-16T20:03:25.703Z,5.22
2023-04-16T20:05:54.399Z,3.55
2023-04-16T20:08:22.921Z,3.38
2023-04-16T20:10:54.485Z,5.28
2023-04-16T20:13:23.275Z,8.82
2023-04-16T20:15:55.004Z,4.72
2023-04-16T20:18:23.596Z,3.97
2023-04-16T20:20:51.964Z,3.45
2023-04-16T20:23:20.382Z,3.60
2023-04-16T20:25:49.153Z,3.42
2023-04-16T20:28:21.608Z,4.22
2023-04-16T20:30:51.345Z,3.60
2023-04-16T20:33:20.039Z,4.20
2023-04-16T20:35:49.497Z,2.33
2023-04-16T20:38:24.008Z,2.78
2023-04-16T20:41:10.810Z,3.03
2023-04-16T20:43:44.424Z,3.60
2023-04-16T20:46:13.617Z,3.72
2023-04-16T20:48:42.522Z,5.45
2023-04-16T20:51:10.978Z,6.82
2023-04-16T20:53:39.345Z,2.95
2023-04-16T20:56:09.428Z,2.88
2023-04-16T20:58:37.972Z,3.17
2023-04-16T21:01:06.597Z,3.33
2023-04-16T21:03:35.431Z,3.42
2023-04-16T21:06:04.810Z,2.72
2023-04-16T21:08:33.129Z,3.25
2023-04-16T21:11:01.956Z,3.90
2023-04-16T21:13:30.925Z,2.70
2023-04-16T21:15:59.225Z,2.83
2023-04-16T21:18:27.772Z,2.92
2023-04-16T21:20:56.848Z,3.70
2023-04-16T21:23:25.335Z,3.15
2023-04-16T21:25:56.977Z,2.42
2023-04-16T21:28:25.440Z,5.93
2023-04-16T21:30:54.100Z,4.60
2023-04-16T21:33:22.746Z,5.97
2023-04-16T21:35:52.735Z,4.63
2023-04-16T21:38:21.876Z,4.57
2023-04-16T21:40:53.815Z,4.45
2023-04-16T21:43:23.383Z,3.40
2023-04-16T21:45:54.988Z,2.72
2023-04-16T21:48:23.414Z,3.38
2023-04-16T21:51:06.750Z,3.25
2023-04-16T21:53:35.531Z,4.57
2023-04-16T21:56:04.000Z,3.20
2023-04-16T21:58:32.088Z,2.83
2023-04-16T22:01:00.315Z,2.78
2023-04-16T22:03:30.594Z,3.78
2023-04-16T22:06:01.947Z,3.88
2023-04-16T22:08:30.626Z,4.05
2023-04-16T22:10:59.909Z,3.50
2023-04-16T22:13:30.111Z,3.35
2023-04-16T22:16:01.694Z,4.28
2023-04-16T22:18:33.319Z,5.82
2023-04-16T22:21:01.874Z,3.35
2023-04-16T22:23:29.927Z,2.80
2023-04-16T22:25:57.890Z,3.40
2023-04-16T22:28:25.848Z,3.38
2023-04-16T22:30:54.092Z,3.47
2023-04-16T22:33:21.984Z,3.17
2023-04-16T22:35:49.960Z,2.60
2023-04-16T22:38:18.000Z,2.63
2023-04-16T22:40:49.017Z,3.05
2023-04-16T22:43:17.992Z,3.10
2023-04-16T22:45:46.583Z,2.63
2023-04-16T22:50:48.771Z,2.35
2023-04-16T22:53:16.723Z,2.47
2023-04-16T22:55:44.708Z,3.50
2023-04-16T22:58:12.647Z,4.88
2023-04-16T23:00:40.714Z,3.05
2023-04-16T23:03:09.046Z,2.53
2023-04-16T23:05:37.072Z,2.85
2023-04-16T23:08:04.984Z,3.63
2023-04-16T23:10:33.096Z,3.75
2023-04-16T23:13:01.044Z,3.15
2023-04-16T23:15:29.212Z,2.97
2023-04-16T23:17:57.154Z,3.15
2023-04-16T23:20:25.253Z,2.80
2023-04-16T23:22:53.188Z,3.13
2023-04-16T23:25:22.697Z,3.38
2023-04-16T23:27:50.716Z,4.47
2023-04-16T23:30:18.749Z,3.38
2023-04-16T23:32:46.860Z,4.45
2023-04-16T23:35:20.724Z,3.05
2023-04-16T23:37:51.919Z,3.95
2023-04-16T23:40:19.907Z,2.95
2023-04-16T23:42:47.856Z,3.35
2023-04-16T23:45:15.980Z,2.30
2023-04-16T23:47:44.765Z,4.82
2023-04-16T23:50:13.356Z,3.17
2023-04-16T23:52:41.330Z,3.20
2023-04-16T23:55:09.504Z,4.30
2023-04-16T23:57:37.564Z,3.45
